createdAt,value
2023-03-26T00:04:46.518Z,0.68
2023-03-26T00:14:48.213Z,0.80
2023-03-26T00:24:51.154Z,0.80
2023-03-26T00:34:54.228Z,0.90
2023-03-26T00:44:57.782Z,0.80
2023-03-26T00:54:59.499Z,0.73
2023-03-26T01:05:04.149Z,0.95
2023-03-26T01:15:08.264Z,0.73
2023-03-26T01:25:10.122Z,0.60
2023-03-26T01:35:21.884Z,0.90
2023-03-26T01:45:28.812Z,0.88
2023-03-26T01:56:03.938Z,0.90
2023-03-26T02:06:07.838Z,0.60
2023-03-26T02:16:14.259Z,0.73
2023-03-26T02:26:18.426Z,0.70
2023-03-26T02:36:42.902Z,0.63
2023-03-26T02:46:45.156Z,0.70
2023-03-26T02:57:07.162Z,0.63
2023-03-26T03:07:28.932Z,0.75
2023-03-26T03:17:32.266Z,0.70
2023-03-26T03:27:34.100Z,0.77
2023-03-26T03:37:43.586Z,0.60
2023-03-26T03:47:45.917Z,0.52
2023-03-26T03:57:49.740Z,0.70
2023-03-26T04:07:54.603Z,0.60
2023-03-26T04:18:02.452Z,0.65
2023-03-26T04:28:07.595Z,0.88
2023-03-26T04:38:35.583Z,0.50
2023-03-26T04:48:38.796Z,0.50
2023-03-26T04:58:43.013Z,0.77
2023-03-26T05:08:45.092Z,0.60
2023-03-26T05:18:56.044Z,0.50
2023-03-26T05:28:59.204Z,0.50
2023-03-26T05:39:07.236Z,0.60
2023-03-26T05:49:27.760Z,0.77
2023-03-26T05:59:29.649Z,0.70
2023-03-26T06:09:49.838Z,0.50
2023-03-26T06:19:52.330Z,0.40
2023-03-26T06:30:05.667Z,0.43
2023-03-26T06:40:14.854Z,0.55
2023-03-26T06:50:40.885Z,0.50
2023-03-26T07:00:47.249Z,0.50
2023-03-26T07:11:07.813Z,0.70
2023-03-26T07:21:27.391Z,0.50
2023-03-26T07:31:56.717Z,1.02
2023-03-26T07:42:33.511Z,0.75
2023-03-26T07:52:53.795Z,0.70
2023-03-26T08:03:14.455Z,0.88
2023-03-26T08:13:40.541Z,0.73
2023-03-26T08:24:04.934Z,0.90
2023-03-26T08:34:09.127Z,0.95
2023-03-26T08:44:48.836Z,1.00
2023-03-26T08:55:27.756Z,1.20
2023-03-26T09:06:03.343Z,1.30
2023-03-26T09:16:27.767Z,0.90
2023-03-26T09:26:41.393Z,1.05
2023-03-26T09:36:57.382Z,1.13
2023-03-26T09:47:22.303Z,1.40
2023-03-26T09:57:58.340Z,1.37
2023-03-26T10:08:00.407Z,1.50
2023-03-26T10:18:27.910Z,1.15
2023-03-26T10:28:41.622Z,1.48
2023-03-26T10:38:58.079Z,1.35
2023-03-26T10:49:14.384Z,0.98
2023-03-26T10:59:17.814Z,1.20
2023-03-26T11:09:34.124Z,1.50
2023-03-26T11:19:38.754Z,1.10
2023-03-26T11:29:58.658Z,1.03
2023-03-26T11:40:06.285Z,1.10
2023-03-26T11:50:14.594Z,1.33
2023-03-26T12:00:19.488Z,0.90
2023-03-26T12:10:23.435Z,1.10
2023-03-26T12:20:32.164Z,1.08
2023-03-26T12:30:37.212Z,1.48
2023-03-26T12:40:40.153Z,1.10
2023-03-26T12:51:12.635Z,0.88
2023-03-26T13:01:38.489Z,0.80
2023-03-26T13:11:48.929Z,1.00
2023-03-26T13:22:05.714Z,1.20
2023-03-26T13:32:17.660Z,0.90
2023-03-26T13:42:56.879Z,1.10
2023-03-26T13:53:14.336Z,1.00
2023-03-26T14:03:29.260Z,1.02
2023-03-26T14:13:35.873Z,1.38
2023-03-26T14:24:08.678Z,1.08
2023-03-26T14:34:47.808Z,1.30
2023-03-26T14:45:04.358Z,0.70
2023-03-26T14:55:16.993Z,1.10
2023-03-26T15:05:33.772Z,1.10
2023-03-26T15:15:41.240Z,1.23
2023-03-26T15:26:12.352Z,0.95
2023-03-26T15:36:28.592Z,1.10
2023-03-26T15:46:58.258Z,0.90
2023-03-26T15:57:28.678Z,0.60
2023-03-26T16:07:58.817Z,1.00
2023-03-26T16:18:31.008Z,0.70
2023-03-26T16:28:37.155Z,0.80
2023-03-26T16:39:04.975Z,1.10
2023-03-26T16:50:08.116Z,0.98
2023-03-26T17:00:16.484Z,1.30
2023-03-26T17:10:40.021Z,1.05
2023-03-26T17:21:04.752Z,0.93
2023-03-26T17:31:26.348Z,0.90
2023-03-26T17:41:49.680Z,0.90
2023-03-26T17:52:16.038Z,1.05
2023-03-26T18:02:21.447Z,0.90
2023-03-26T18:12:44.184Z,0.85
2023-03-26T18:22:46.310Z,1.10
2023-03-26T18:33:05.125Z,0.90
2023-03-26T18:43:22.226Z,1.13
2023-03-26T19:05:27.635Z,1.02
2023-03-26T19:15:31.900Z,0.80
2023-03-26T19:25:42.634Z,0.82
2023-03-26T19:35:57.881Z,0.98
2023-03-26T19:46:01.242Z,0.90
2023-03-26T19:56:08.022Z,0.73
2023-03-26T20:06:14.059Z,0.98
2023-03-26T20:16:22.890Z,1.00
2023-03-26T20:26:25.381Z,0.95
2023-03-26T20:36:33.687Z,0.80
2023-03-26T20:46:36.677Z,0.88
2023-03-26T20:56:41.637Z,0.70
2023-03-26T21:06:43.663Z,0.88
2023-03-26T21:16:45.942Z,0.80
2023-03-26T21:26:54.386Z,0.98
2023-03-26T21:47:37.322Z,0.80
2023-03-26T21:57:44.968Z,1.08
2023-03-26T22:07:52.754Z,1.10
2023-03-26T22:17:56.002Z,1.00
2023-03-26T22:27:57.748Z,0.90
2023-03-26T22:38:00.893Z,0.70
2023-03-26T22:48:04.622Z,0.95
2023-03-26T22:58:06.823Z,1.10
2023-03-26T23:08:08.527Z,1.10
2023-03-26T23:18:10.613Z,0.60
2023-03-26T23:28:12.335Z,0.80
2023-03-26T23:38:14.087Z,0.73
2023-03-26T23:48:22.848Z,0.85
2023-03-26T23:58:27.194Z,0.80
